Time;durP1;ratioP1;P1;durP2;ratioP2;P2;SDS_P1;SDS_P2;PMS_P1;PMS_P2;Temp;Humidity;BMP_temperature;BMP_pressure;BME280_temperature;BME280_humidity;BME280_pressure;Samples;Min_cycle;Max_cycle;Signal;HPM_P1;HPM_P2
2023/06/14 00:01:46;;;;;;;8.80;6.18;;;20.70;94.60;;;;;;4932808;28;20499;-74
2023/06/14 00:04:16;;;;;;;6.70;5.90;;;20.70;94.70;;;;;;4932879;28;20034;-74
2023/06/14 00:06:45;;;;;;;7.10;5.85;;;20.70;94.60;;;;;;4932803;28;20035;-74
2023/06/14 00:09:12;;;;;;;10.57;5.93;;;20.60;94.60;;;;;;4932656;28;20024;-73
2023/06/14 00:11:39;;;;;;;8.93;6.28;;;20.60;94.70;;;;;;4933188;28;20444;-74
2023/06/14 00:14:05;;;;;;;5.82;5.15;;;20.60;94.70;;;;;;4943666;28;20112;-73
2023/06/14 00:16:32;;;;;;;11.15;5.30;;;20.60;94.80;;;;;;5032738;28;20025;-74
2023/06/14 00:18:58;;;;;;;7.40;5.32;;;20.50;94.80;;;;;;5032454;28;20025;-73
2023/06/14 00:21:24;;;;;;;9.35;4.97;;;20.50;94.70;;;;;;5032437;28;20025;-73
2023/06/14 00:23:50;;;;;;;7.85;4.45;;;20.50;94.60;;;;;;5032531;28;20037;-74
2023/06/14 00:26:16;;;;;;;6.55;4.93;;;20.50;94.50;;;;;;5033509;28;20485;-73
2023/06/14 00:28:41;;;;;;;12.13;4.70;;;20.50;94.40;;;;;;5036783;28;20032;-74
2023/06/14 00:31:07;;;;;;;10.13;4.90;;;20.40;94.30;;;;;;5036413;28;20033;-73
2023/06/14 00:33:33;;;;;;;8.90;4.25;;;20.40;94.30;;;;;;5036335;28;20151;-74
2023/06/14 00:35:59;;;;;;;9.90;4.60;;;20.40;94.20;;;;;;5036378;28;20509;-74
2023/06/14 00:38:24;;;;;;;7.28;4.40;;;20.30;94.20;;;;;;5036453;28;20025;-74
2023/06/14 00:40:50;;;;;;;8.18;4.63;;;20.30;94.20;;;;;;5036163;28;20029;-74
2023/06/14 00:43:16;;;;;;;10.75;4.22;;;20.30;94.30;;;;;;5036401;28;20457;-71
2023/06/14 00:45:42;;;;;;;7.10;4.45;;;20.30;94.30;;;;;;5036268;28;20025;-73
2023/06/14 00:48:09;;;;;;;7.40;4.18;;;20.30;94.30;;;;;;5035954;28;20045;-73
2023/06/14 00:50:36;;;;;;;5.90;4.40;;;20.20;94.20;;;;;;5036216;28;20537;-73
2023/06/14 00:53:02;;;;;;;10.32;4.53;;;20.20;94.30;;;;;;5036439;28;20071;-74
2023/06/14 00:55:28;;;;;;;9.13;4.53;;;20.20;94.40;;;;;;5036111;28;20108;-74
2023/06/14 00:57:55;;;;;;;7.45;4.13;;;20.20;94.40;;;;;;5034747;28;20056;-75
2023/06/14 01:00:22;;;;;;;8.75;4.40;;;20.20;94.40;;;;;;5033513;28;20500;-76
2023/06/14 01:02:49;;;;;;;7.03;4.20;;;20.10;94.30;;;;;;5033131;28;20083;-74
2023/06/14 01:05:15;;;;;;;7.70;4.60;;;20.10;94.30;;;;;;5034706;28;20072;-74
2023/06/14 01:07:55;;;;;;;11.88;4.57;;;20.10;94.30;;;;;;5035906;28;20421;-74
2023/06/14 01:10:53;;;;;;;7.10;4.40;;;20.10;94.10;;;;;;5017909;28;20500;-74
2023/06/14 01:13:26;;;;;;;8.07;4.30;;;20.10;94.00;;;;;;5035498;28;20478;-73
2023/06/14 01:15:52;;;;;;;5.70;4.28;;;20.10;93.90;;;;;;5018079;28;20076;-73
2023/06/14 01:18:18;;;;;;;4.65;4.18;;;20.10;93.80;;;;;;5035486;28;20029;-73
2023/06/14 01:20:50;;;;;;;8.60;4.30;;;20.00;93.90;;;;;;5017750;28;20124;-73
2023/06/14 01:23:17;;;;;;;8.80;3.88;;;20.00;93.50;;;;;;5035632;28;20097;-76
2023/06/14 01:25:44;;;;;;;6.45;4.07;;;20.00;93.50;;;;;;5035674;28;20022;-73
2023/06/14 01:28:12;;;;;;;7.10;3.53;;;20.00;93.50;;;;;;5035169;28;20040;-73
2023/06/14 01:30:42;;;;;;;9.23;4.22;;;20.00;93.40;;;;;;5035569;28;20029;-75
2023/06/14 01:33:08;;;;;;;7.78;3.97;;;19.90;93.30;;;;;;5035187;28;20049;-74
2023/06/14 01:35:35;;;;;;;5.93;4.03;;;19.90;93.20;;;;;;5035132;28;20129;-73
2023/06/14 01:38:03;;;;;;;9.05;4.47;;;19.90;93.20;;;;;;5035568;28;20025;-72
2023/06/14 01:40:30;;;;;;;8.35;4.38;;;19.90;93.20;;;;;;5035238;28;20018;-73
2023/06/14 01:42:56;;;;;;;5.32;4.22;;;19.90;93.20;;;;;;5035172;28;20029;-75
2023/06/14 01:45:22;;;;;;;7.72;4.35;;;19.90;93.30;;;;;;5035279;28;20026;-72
2023/06/14 01:47:48;;;;;;;13.45;4.25;;;19.90;93.50;;;;;;5035258;28;20041;-76
2023/06/14 01:50:14;;;;;;;5.70;3.80;;;19.80;93.50;;;;;;5035356;28;20048;-76
2023/06/14 01:52:40;;;;;;;5.20;4.05;;;19.80;93.60;;;;;;5034909;28;20029;-75
2023/06/14 01:55:06;;;;;;;9.02;3.90;;;19.80;93.70;;;;;;5035018;28;20045;-75
2023/06/14 01:57:31;;;;;;;9.35;3.88;;;19.80;93.70;;;;;;5035144;28;20037;-76
2023/06/14 01:59:57;;;;;;;9.52;4.00;;;19.70;93.60;;;;;;5017392;28;20026;-74
2023/06/14 02:02:23;;;;;;;4.63;3.35;;;19.80;93.60;;;;;;5035114;28;20109;-75
2023/06/14 02:04:49;;;;;;;4.35;3.95;;;19.70;93.60;;;;;;5034926;28;20033;-75
2023/06/14 02:07:14;;;;;;;10.55;4.03;;;19.70;93.70;;;;;;5034641;28;20386;-75
2023/06/14 02:09:41;;;;;;;7.78;4.00;;;19.70;93.70;;;;;;5034857;28;20070;-74
2023/06/14 02:12:07;;;;;;;9.52;4.10;;;19.70;93.70;;;;;;5034675;28;20034;-75
2023/06/14 02:14:33;;;;;;;6.53;3.72;;;19.70;93.70;;;;;;5034727;28;20105;-76
2023/06/14 02:17:00;;;;;;;8.18;4.18;;;19.70;93.70;;;;;;5034634;28;20117;-75
2023/06/14 02:19:27;;;;;;;5.78;3.92;;;19.60;93.70;;;;;;5034670;28;20021;-76
2023/06/14 02:21:52;;;;;;;6.78;4.18;;;19.70;93.70;;;;;;5034706;28;20027;-75
2023/06/14 02:24:18;;;;;;;7.03;3.92;;;19.60;93.80;;;;;;5034765;28;20108;-74
2023/06/14 02:26:44;;;;;;;11.38;3.92;;;19.60;93.70;;;;;;5034327;28;20037;-74
2023/06/14 02:29:12;;;;;;;6.30;4.05;;;19.60;93.50;;;;;;5034253;28;20518;-76
2023/06/14 02:31:38;;;;;;;7.95;3.72;;;19.60;93.30;;;;;;5034480;28;20374;-73
2023/06/14 02:34:03;;;;;;;6.80;4.00;;;19.50;93.20;;;;;;5034289;28;20021;-74
2023/06/14 02:36:30;;;;;;;7.82;3.60;;;19.50;92.90;;;;;;5033859;28;20037;-75
2023/06/14 02:38:57;;;;;;;7.57;3.28;;;19.50;92.70;;;;;;5034145;28;20040;-76
2023/06/14 02:41:24;;;;;;;7.47;3.50;;;19.50;92.50;;;;;;5034269;28;20047;-75
2023/06/14 02:43:49;;;;;;;3.63;3.20;;;19.40;92.30;;;;;;5033924;28;20500;-75
2023/06/14 02:46:15;;;;;;;8.77;3.42;;;19.40;92.20;;;;;;5034150;28;20017;-75
2023/06/14 02:48:41;;;;;;;5.25;3.10;;;19.40;92.20;;;;;;5033725;28;20026;-75
2023/06/14 02:51:08;;;;;;;7.10;3.58;;;19.40;91.90;;;;;;5033956;28;20056;-75
2023/06/14 02:53:34;;;;;;;7.13;3.30;;;19.40;91.90;;;;;;5033997;28;20029;-75
2023/06/14 02:56:00;;;;;;;9.13;3.40;;;19.40;91.90;;;;;;5033764;28;20107;-74
2023/06/14 02:58:26;;;;;;;7.03;3.53;;;19.40;91.90;;;;;;5033637;28;20481;-75
2023/06/14 03:00:52;;;;;;;5.20;3.53;;;19.40;92.00;;;;;;5034046;28;20037;-75
2023/06/14 03:03:21;;;;;;;7.50;3.88;;;19.40;91.90;;;;;;5033784;28;20056;-76
2023/06/14 03:05:49;;;;;;;6.35;2.90;;;19.40;91.90;;;;;;5033536;28;20031;-76
2023/06/14 03:08:16;;;;;;;7.30;3.60;;;19.40;91.90;;;;;;5015979;28;20034;-76
2023/06/14 03:10:49;;;;;;;4.70;3.13;;;19.30;92.00;;;;;;5033510;28;20026;-76
2023/06/14 03:13:15;;;;;;;6.22;3.47;;;19.30;91.90;;;;;;5033552;28;20026;-76
2023/06/14 03:15:44;;;;;;;6.22;3.22;;;19.30;91.90;;;;;;5033506;28;20448;-75
2023/06/14 03:18:11;;;;;;;7.25;3.88;;;19.30;91.90;;;;;;5033558;28;20032;-74
2023/06/14 03:20:38;;;;;;;5.43;3.63;;;19.30;91.90;;;;;;5033431;28;20034;-73
2023/06/14 03:23:05;;;;;;;5.07;3.60;;;19.30;91.70;;;;;;5033307;28;20025;-74
2023/06/14 03:25:32;;;;;;;5.70;3.88;;;19.30;91.70;;;;;;5033024;28;20048;-76
2023/06/14 03:27:58;;;;;;;5.45;3.22;;;19.30;91.60;;;;;;5033425;28;20120;-76
2023/06/14 03:30:24;;;;;;;7.70;3.30;;;19.30;91.80;;;;;;5033355;28;20449;-75
2023/06/14 03:32:52;;;;;;;5.72;3.65;;;19.30;91.70;;;;;;4983686;28;20027;-75
2023/06/14 03:35:18;;;;;;;6.88;3.47;;;19.30;91.60;;;;;;4932890;28;20512;-76
2023/06/14 03:37:45;;;;;;;4.53;3.00;;;19.30;91.40;;;;;;4933066;28;20028;-76
2023/06/14 03:40:13;;;;;;;5.30;3.10;;;19.30;91.40;;;;;;4933196;28;20101;-76
2023/06/14 03:42:39;;;;;;;5.05;3.20;;;19.30;91.30;;;;;;4933428;28;20490;-75
2023/06/14 03:45:07;;;;;;;6.90;3.35;;;19.30;91.30;;;;;;4932995;29;20024;-75
2023/06/14 03:47:34;;;;;;;6.60;3.38;;;19.20;91.40;;;;;;4932956;28;20040;-75
2023/06/14 03:50:00;;;;;;;7.55;3.30;;;19.20;91.40;;;;;;4933156;28;20028;-76
2023/06/14 03:52:26;;;;;;;4.93;3.15;;;19.20;91.80;;;;;;4932807;29;20059;-75
2023/06/14 03:54:52;;;;;;;6.35;3.53;;;19.20;91.40;;;;;;4933053;28;20055;-76
2023/06/14 03:57:18;;;;;;;6.18;3.42;;;19.20;91.60;;;;;;4932958;28;20042;-75
2023/06/14 03:59:44;;;;;;;6.07;3.00;;;19.20;91.70;;;;;;4933153;28;20464;-76
2023/06/14 04:02:10;;;;;;;6.63;3.45;;;19.20;91.80;;;;;;4931929;28;20081;-75
2023/06/14 04:04:36;;;;;;;12.02;3.78;;;19.20;91.80;;;;;;4932948;28;20039;-76
2023/06/14 04:07:03;;;;;;;8.32;3.40;;;19.20;91.80;;;;;;4932532;28;20035;-75
2023/06/14 04:09:31;;;;;;;13.48;3.40;;;19.20;91.90;;;;;;4932780;28;20031;-74
2023/06/14 04:11:57;;;;;;;3.75;3.10;;;19.20;91.90;;;;;;4932841;28;20038;-75
2023/06/14 04:14:23;;;;;;;6.53;3.55;;;19.20;92.00;;;;;;4933060;28;20102;-75
2023/06/14 04:16:49;;;;;;;9.90;3.30;;;19.20;92.10;;;;;;4932749;28;20023;-76
2023/06/14 04:19:16;;;;;;;6.45;3.70;;;19.30;92.20;;;;;;4932380;28;20016;-74
2023/06/14 04:21:42;;;;;;;5.13;3.40;;;19.20;92.10;;;;;;4932439;28;20099;-75
2023/06/14 04:24:13;;;;;;;7.88;3.42;;;19.20;92.00;;;;;;4932610;28;20034;-76
2023/06/14 04:26:41;;;;;;;8.18;3.30;;;19.30;92.00;;;;;;4932828;28;20032;-74
2023/06/14 04:29:07;;;;;;;8.52;3.42;;;19.30;92.10;;;;;;4998287;28;20039;-76
2023/06/14 04:31:33;;;;;;;10.07;3.30;;;19.20;92.10;;;;;;4932511;28;20173;-76
2023/06/14 04:33:59;;;;;;;9.27;3.40;;;19.30;92.00;;;;;;4932612;28;20028;-75
2023/06/14 04:36:27;;;;;;;8.05;3.80;;;19.30;92.00;;;;;;4932223;29;20043;-75
2023/06/14 04:38:54;;;;;;;6.22;3.95;;;19.30;91.90;;;;;;4932880;28;20028;-74
2023/06/14 04:41:22;;;;;;;4.93;2.95;;;19.30;92.00;;;;;;4932271;28;20498;-75
2023/06/14 04:43:49;;;;;;;8.02;3.63;;;19.30;92.00;;;;;;4997052;28;20070;-76
2023/06/14 04:46:15;;;;;;;6.22;3.60;;;19.30;91.80;;;;;;4932298;28;20118;-74
2023/06/14 04:48:42;;;;;;;5.28;3.40;;;19.30;91.70;;;;;;4932492;28;20036;-75
2023/06/14 04:51:12;;;;;;;4.63;3.10;;;19.30;91.60;;;;;;4932490;28;20483;-76
2023/06/14 04:53:38;;;;;;;4.25;3.15;;;19.30;91.70;;;;;;4932520;28;20425;-74
2023/06/14 04:56:04;;;;;;;7.22;3.63;;;19.30;91.70;;;;;;4931998;28;20102;-73
2023/06/14 04:58:30;;;;;;;11.50;3.35;;;19.40;91.60;;;;;;4932547;28;20082;-76
2023/06/14 05:00:56;;;;;;;6.07;3.15;;;19.40;91.40;;;;;;4932169;28;20032;-73
2023/06/14 05:03:26;;;;;;;10.18;3.38;;;19.40;91.00;;;;;;4931914;28;20487;-73
2023/06/14 05:05:53;;;;;;;5.28;3.33;;;19.50;90.80;;;;;;4932420;28;20040;-75
2023/06/14 05:08:23;;;;;;;10.73;3.28;;;19.50;90.90;;;;;;4931845;28;20468;-73
2023/06/14 05:10:49;;;;;;;5.78;3.00;;;19.50;90.90;;;;;;4932277;28;20078;-76
2023/06/14 05:13:15;;;;;;;7.53;3.17;;;19.60;90.90;;;;;;4934397;28;20131;-75
2023/06/14 05:15:41;;;;;;;7.72;3.03;;;19.60;90.70;;;;;;5001793;28;20111;-73
2023/06/14 05:18:09;;;;;;;6.57;3.03;;;19.70;90.40;;;;;;4935158;28;20039;-72
2023/06/14 05:20:36;;;;;;;4.85;3.15;;;19.70;90.10;;;;;;4935479;28;20016;-73
2023/06/14 05:23:02;;;;;;;5.70;2.95;;;19.80;90.10;;;;;;4935351;28;20032;-75
2023/06/14 05:25:28;;;;;;;6.20;3.05;;;19.80;90.20;;;;;;4935178;28;20094;-74
2023/06/14 05:27:54;;;;;;;5.82;3.20;;;19.90;90.20;;;;;;4935261;28;20064;-74
2023/06/14 05:30:20;;;;;;;8.50;3.15;;;19.90;90.10;;;;;;4935073;29;20032;-74
2023/06/14 05:32:46;;;;;;;5.47;2.92;;;20.00;90.10;;;;;;4935126;28;20052;-72
2023/06/14 05:35:12;;;;;;;5.40;3.00;;;20.00;90.10;;;;;;4935035;28;20075;-74
2023/06/14 05:37:38;;;;;;;6.25;3.13;;;20.00;90.00;;;;;;4935479;28;20101;-73
2023/06/14 05:40:06;;;;;;;3.85;2.88;;;20.10;89.90;;;;;;4935126;29;20035;-74
2023/06/14 05:42:32;;;;;;;4.25;2.90;;;20.10;89.40;;;;;;4935077;28;20047;-74
2023/06/14 05:44:58;;;;;;;8.63;3.10;;;20.10;89.30;;;;;;4935028;28;20024;-75
2023/06/14 05:47:23;;;;;;;4.85;3.30;;;20.20;89.20;;;;;;4935197;28;20400;-74
2023/06/14 05:49:49;;;;;;;9.43;3.00;;;20.20;89.10;;;;;;4934839;28;20400;-71
2023/06/14 05:52:15;;;;;;;6.75;3.25;;;20.20;89.20;;;;;;5000993;28;20480;-73
2023/06/14 05:54:41;;;;;;;5.78;3.50;;;20.30;89.50;;;;;;4934935;28;20031;-73
2023/06/14 05:57:07;;;;;;;7.03;2.88;;;20.30;89.90;;;;;;4935095;28;20595;-74
2023/06/14 05:59:32;;;;;;;6.75;2.97;;;20.30;89.70;;;;;;4934948;28;20056;-74
2023/06/14 06:01:58;;;;;;;5.65;2.95;;;20.30;89.60;;;;;;4934810;28;20039;-74
2023/06/14 06:04:24;;;;;;;6.90;3.47;;;20.40;90.00;;;;;;4934634;28;20099;-73
2023/06/14 06:06:50;;;;;;;4.72;3.08;;;20.40;90.10;;;;;;5000431;28;20155;-73
2023/06/14 06:09:15;;;;;;;10.45;3.50;;;20.40;90.10;;;;;;4934644;28;20126;-74
2023/06/14 06:11:41;;;;;;;5.50;3.47;;;20.50;90.10;;;;;;4934745;28;20032;-74
2023/06/14 06:14:06;;;;;;;7.05;3.10;;;20.50;90.00;;;;;;4934392;28;20042;-73
2023/06/14 06:16:33;;;;;;;5.07;3.00;;;20.50;89.70;;;;;;4934560;28;20039;-72
2023/06/14 06:18:59;;;;;;;15.68;3.70;;;20.50;89.60;;;;;;4933807;28;20551;-74
2023/06/14 06:21:24;;;;;;;7.82;3.10;;;20.60;88.80;;;;;;4997609;28;20032;-68
2023/06/14 06:23:50;;;;;;;5.70;3.17;;;20.60;88.70;;;;;;4933364;28;20506;-70
2023/06/14 06:26:16;;;;;;;3.67;3.00;;;20.60;88.50;;;;;;4934182;28;20035;-71
2023/06/14 06:28:42;;;;;;;8.63;3.97;;;20.70;88.20;;;;;;4999527;28;20028;-67
2023/06/14 06:31:07;;;;;;;8.07;3.20;;;20.70;87.90;;;;;;4928643;28;20039;-71
2023/06/14 06:33:33;;;;;;;7.00;2.70;;;20.70;88.10;;;;;;4914675;28;20532;-73
2023/06/14 06:35:59;;;;;;;4.30;3.13;;;20.80;87.70;;;;;;4914578;28;20083;-70
2023/06/14 06:38:25;;;;;;;7.30;3.55;;;20.80;87.40;;;;;;4914103;28;20033;-70
2023/06/14 06:40:50;;;;;;;5.72;2.80;;;20.90;87.50;;;;;;4914082;28;20130;-70
2023/06/14 06:43:17;;;;;;;8.30;2.95;;;20.90;87.50;;;;;;4913857;29;20116;-80
2023/06/14 06:45:43;;;;;;;6.35;3.13;;;20.90;88.00;;;;;;4913891;28;20055;-78
2023/06/14 06:48:12;;;;;;;5.95;3.08;;;21.00;87.50;;;;;;4914361;28;20040;-77
2023/06/14 06:50:38;;;;;;;8.70;2.53;;;21.00;87.80;;;;;;4914383;28;20039;-76
2023/06/14 06:53:04;;;;;;;4.68;3.33;;;21.00;87.60;;;;;;4914545;28;20032;-79
2023/06/14 06:55:30;;;;;;;6.72;3.15;;;21.00;87.30;;;;;;4914278;28;20074;-78
2023/06/14 06:57:56;;;;;;;4.43;3.10;;;21.10;86.70;;;;;;4914117;28;20484;-76
2023/06/14 07:00:21;;;;;;;4.72;3.30;;;21.10;86.30;;;;;;4914058;28;20169;-77
2023/06/14 07:02:47;;;;;;;6.38;3.25;;;21.10;85.80;;;;;;4914626;28;20093;-75
2023/06/14 07:05:13;;;;;;;7.28;3.10;;;21.10;85.70;;;;;;4914160;28;20031;-78
2023/06/14 07:07:39;;;;;;;10.10;4.13;;;21.10;85.80;;;;;;4914153;28;20047;-70
2023/06/14 07:10:05;;;;;;;8.98;3.35;;;21.10;85.60;;;;;;4979134;28;20362;-74
2023/06/14 07:12:33;;;;;;;6.57;3.08;;;21.20;85.10;;;;;;4979124;28;20392;-74
2023/06/14 07:15:00;;;;;;;6.97;3.30;;;21.20;84.30;;;;;;4914174;28;20557;-75
2023/06/14 07:17:26;;;;;;;5.22;2.85;;;21.20;84.30;;;;;;4914138;28;20050;-75
2023/06/14 07:19:53;;;;;;;9.90;3.17;;;21.20;84.50;;;;;;4913879;28;20107;-75
2023/06/14 07:22:19;;;;;;;6.88;3.55;;;21.20;84.70;;;;;;4914119;28;20066;-74
2023/06/14 07:24:44;;;;;;;4.10;3.13;;;21.20;84.50;;;;;;4979636;28;20411;-75
2023/06/14 07:27:11;;;;;;;9.43;3.63;;;21.30;84.60;;;;;;4914416;28;20050;-74
2023/06/14 07:29:37;;;;;;;7.50;3.45;;;21.20;85.10;;;;;;4914264;28;20059;-75
2023/06/14 07:32:02;;;;;;;6.57;3.00;;;21.30;85.20;;;;;;4914219;28;20060;-76
2023/06/14 07:34:28;;;;;;;9.30;3.17;;;21.30;84.60;;;;;;4924041;23;20051;-74
2023/06/14 07:36:54;;;;;;;7.60;3.38;;;21.30;84.20;;;;;;4932492;28;20115;-74
2023/06/14 07:39:19;;;;;;;5.55;3.58;;;21.30;84.20;;;;;;4997847;28;20622;-73
2023/06/14 07:41:45;;;;;;;5.22;3.28;;;21.40;84.50;;;;;;4933098;28;20103;-74
2023/06/14 07:44:12;;;;;;;6.85;3.10;;;21.40;84.90;;;;;;4933284;28;20368;-73
2023/06/14 07:46:38;;;;;;;6.55;3.30;;;21.50;84.90;;;;;;4933296;29;20475;-74
2023/06/14 07:49:04;;;;;;;12.25;2.90;;;21.50;85.10;;;;;;4933150;29;20107;-72
2023/06/14 07:51:29;;;;;;;4.15;3.45;;;21.60;85.20;;;;;;4933091;29;20102;-74
2023/06/14 07:53:56;;;;;;;8.60;3.38;;;21.60;85.30;;;;;;4932828;28;20472;-74
2023/06/14 07:56:23;;;;;;;6.13;3.42;;;21.60;85.00;;;;;;4933144;29;20517;-74
2023/06/14 07:58:48;;;;;;;8.23;3.13;;;21.70;84.80;;;;;;4933440;28;20031;-74
2023/06/14 08:01:15;;;;;;;12.18;3.53;;;21.70;84.70;;;;;;4933050;28;20155;-75
2023/06/14 08:03:40;;;;;;;9.55;4.32;;;21.70;84.30;;;;;;4932901;29;20038;-74
2023/06/14 08:06:07;;;;;;;10.02;3.63;;;21.80;84.50;;;;;;4933051;28;20020;-74
2023/06/14 08:08:33;;;;;;;4.18;3.10;;;21.80;83.70;;;;;;4932982;28;20031;-75
2023/06/14 08:10:59;;;;;;;4.93;3.53;;;21.90;82.90;;;;;;4932565;29;20028;-75
2023/06/14 08:13:25;;;;;;;5.10;3.20;;;21.90;82.00;;;;;;4932812;29;20539;-73
2023/06/14 08:15:50;;;;;;;17.85;3.70;;;22.00;82.60;;;;;;4932385;28;20372;-74
2023/06/14 08:18:16;;;;;;;6.90;3.05;;;22.10;82.60;;;;;;4931838;29;20019;-74
2023/06/14 08:20:42;;;;;;;5.70;3.17;;;22.10;82.00;;;;;;4933039;28;20404;-75
2023/06/14 08:23:08;;;;;;;4.72;3.22;;;22.20;81.60;;;;;;4932792;29;20606;-73
2023/06/14 08:25:35;;;;;;;7.45;3.47;;;22.20;80.90;;;;;;4932796;28;20082;-74
2023/06/14 08:28:00;;;;;;;5.97;3.20;;;22.20;80.80;;;;;;4932614;28;20519;-74
2023/06/14 08:30:27;;;;;;;9.02;3.50;;;22.20;81.20;;;;;;4932960;28;20059;-74
2023/06/14 08:32:55;;;;;;;9.32;4.38;;;22.30;81.20;;;;;;4932053;29;20616;-75
2023/06/14 08:35:21;;;;;;;5.72;3.33;;;22.30;81.90;;;;;;4932241;28;20052;-74
2023/06/14 08:37:47;;;;;;;6.10;4.22;;;22.30;82.10;;;;;;4932206;29;20383;-74
2023/06/14 08:40:23;;;;;;;8.10;3.45;;;22.30;81.20;;;;;;4932322;28;20098;-74
2023/06/14 08:42:54;;;;;;;11.02;3.60;;;22.30;81.40;;;;;;4932587;29;20051;-74
2023/06/14 08:45:21;;;;;;;6.28;3.30;;;22.30;81.50;;;;;;4932764;29;20450;-74
2023/06/14 08:47:51;;;;;;;4.22;3.33;;;22.40;81.10;;;;;;4934201;29;20127;-74
2023/06/14 08:50:22;;;;;;;6.22;3.60;;;22.40;81.30;;;;;;4936048;28;20476;-74
2023/06/14 08:52:52;;;;;;;8.48;3.92;;;22.40;81.20;;;;;;4935550;29;20526;-74
2023/06/14 08:55:19;;;;;;;10.35;3.35;;;22.40;81.10;;;;;;4935773;29;20035;-74
2023/06/14 08:57:47;;;;;;;11.68;3.95;;;22.40;82.00;;;;;;4935761;29;20111;-75
2023/06/14 09:00:14;;;;;;;7.82;4.00;;;22.50;81.20;;;;;;4935785;28;20034;-74
2023/06/14 09:02:46;;;;;;;6.55;3.53;;;22.50;80.90;;;;;;4935727;29;20027;-74
2023/06/14 09:05:13;;;;;;;6.18;3.22;;;22.50;80.60;;;;;;4935567;29;20384;-75
2023/06/14 09:07:43;;;;;;;3.97;3.28;;;22.50;80.40;;;;;;4935465;29;20388;-74
2023/06/14 09:10:14;;;;;;;6.80;3.10;;;22.60;79.50;;;;;;4935314;29;20016;-74
2023/06/14 09:12:40;;;;;;;6.13;3.13;;;22.60;79.80;;;;;;4935572;29;20043;-74
2023/06/14 09:15:08;;;;;;;4.32;3.38;;;22.80;79.80;;;;;;4935437;28;20468;-74
2023/06/14 09:17:38;;;;;;;5.13;3.17;;;22.80;79.50;;;;;;4935627;29;20027;-75
2023/06/14 09:20:13;;;;;;;6.85;3.58;;;23.00;79.50;;;;;;4935739;28;20380;-74
2023/06/14 09:22:39;;;;;;;6.15;3.25;;;23.20;78.40;;;;;;4935598;29;20361;-74
2023/06/14 09:25:05;;;;;;;5.80;3.42;;;23.20;78.00;;;;;;4935466;29;20610;-75
2023/06/14 09:27:32;;;;;;;6.00;3.30;;;23.30;77.50;;;;;;4935306;29;20048;-74
2023/06/14 09:29:58;;;;;;;10.80;3.17;;;23.40;77.10;;;;;;4935437;29;20027;-74
2023/06/14 09:32:24;;;;;;;3.83;2.95;;;23.50;76.40;;;;;;4935464;28;20032;-74
2023/06/14 09:34:50;;;;;;;5.50;3.40;;;23.60;76.00;;;;;;4935028;29;20047;-76
2023/06/14 09:37:38;;;;;;;10.13;3.22;;;23.60;75.10;;;;;;4935220;29;20036;-75
2023/06/14 09:40:04;;;;;;;4.35;3.15;;;23.70;74.40;;;;;;4934143;29;20070;-75
2023/06/14 09:42:30;;;;;;;3.97;3.10;;;23.70;75.00;;;;;;4935008;29;20099;-74
2023/06/14 09:44:57;;;;;;;5.63;3.33;;;23.70;72.90;;;;;;4935127;29;20067;-75
2023/06/14 09:47:23;;;;;;;8.27;3.08;;;23.70;72.10;;;;;;4934533;29;20418;-75
2023/06/14 09:49:50;;;;;;;6.05;3.40;;;23.70;71.40;;;;;;4934950;29;20039;-75
2023/06/14 09:52:18;;;;;;;4.75;3.20;;;23.70;71.50;;;;;;4935042;29;20033;-74
2023/06/14 09:54:47;;;;;;;7.40;2.80;;;23.80;71.50;;;;;;4935080;28;20135;-73
2023/06/14 09:57:15;;;;;;;5.00;3.20;;;23.90;71.10;;;;;;4934816;29;20110;-73
2023/06/14 09:59:47;;;;;;;5.50;2.95;;;24.00;70.40;;;;;;4933432;29;20098;-74
2023/06/14 10:02:23;;;;;;;4.75;2.90;;;24.10;70.10;;;;;;4934848;28;20024;-73
2023/06/14 10:04:57;;;;;;;12.27;3.20;;;24.20;70.10;;;;;;4934554;29;20426;-74
2023/06/14 10:07:25;;;;;;;8.77;2.78;;;24.20;69.50;;;;;;4934505;29;20040;-73
2023/06/14 10:09:53;;;;;;;8.18;3.05;;;24.40;69.90;;;;;;4934612;29;20032;-75
2023/06/14 10:12:20;;;;;;;4.80;3.25;;;24.40;70.10;;;;;;4934668;28;20038;-74
2023/06/14 10:14:49;;;;;;;9.73;3.45;;;24.50;70.00;;;;;;4934510;28;20039;-74
2023/06/14 10:17:23;;;;;;;6.28;2.92;;;24.70;70.50;;;;;;4934547;29;20078;-74
2023/06/14 10:19:54;;;;;;;4.20;2.67;;;24.90;68.40;;;;;;4934665;29;20030;-74
2023/06/14 10:22:24;;;;;;;7.30;3.57;;;24.90;67.90;;;;;;4934713;29;20463;-72
2023/06/14 10:24:50;;;;;;;6.90;3.17;;;25.00;67.40;;;;;;4934420;28;20445;-74
2023/06/14 10:27:23;;;;;;;3.00;2.60;;;25.00;66.30;;;;;;4934119;28;20142;-74
2023/06/14 10:29:57;;;;;;;6.18;2.63;;;25.00;65.60;;;;;;4934179;28;20170;-74
2023/06/14 10:32:24;;;;;;;3.78;2.90;;;25.00;65.40;;;;;;4933957;28;20089;-74
2023/06/14 10:35:06;;;;;;;7.78;2.90;;;25.00;64.30;;;;;;4933786;29;20083;-75
2023/06/14 10:37:32;;;;;;;5.25;3.03;;;24.90;63.90;;;;;;4933766;29;20027;-75
2023/06/14 10:39:58;;;;;;;6.20;2.80;;;24.90;63.70;;;;;;4933799;28;20028;-75
2023/06/14 10:42:31;;;;;;;9.02;2.88;;;24.80;63.60;;;;;;4933953;28;20027;-74
2023/06/14 10:45:00;;;;;;;3.30;2.92;;;24.80;64.70;;;;;;4934128;29;20051;-73
2023/06/14 10:47:39;;;;;;;9.30;2.92;;;24.80;65.30;;;;;;4933901;29;20035;-73
2023/06/14 10:50:08;;;;;;;5.75;2.25;;;24.80;65.40;;;;;;4933788;29;20020;-75
2023/06/14 10:52:43;;;;;;;6.68;2.90;;;24.80;61.00;;;;;;4933087;29;20036;-74
2023/06/14 10:55:21;;;;;;;4.28;2.58;;;24.80;59.90;;;;;;4932165;29;20024;-74
2023/06/14 10:57:58;;;;;;;7.30;2.90;;;24.70;61.20;;;;;;4933810;29;20166;-74
2023/06/14 11:00:26;;;;;;;10.35;2.90;;;24.70;62.20;;;;;;4933809;29;20517;-74
2023/06/14 11:03:07;;;;;;;5.57;2.90;;;24.70;62.30;;;;;;4933695;29;20026;-74
2023/06/14 11:05:42;;;;;;;8.30;3.20;;;24.70;63.30;;;;;;4933866;29;20031;-75
2023/06/14 11:08:38;;;;;;;4.35;2.85;;;24.70;64.30;;;;;;4933795;28;20125;-74
2023/06/14 11:11:08;;;;;;;4.28;3.17;;;24.70;65.10;;;;;;4998548;28;20040;-75
2023/06/14 11:13:38;;;;;;;5.53;2.90;;;24.70;62.20;;;;;;4933184;29;20039;-76
2023/06/14 11:16:13;;;;;;;4.57;3.08;;;24.60;62.70;;;;;;4933442;29;20071;-75
2023/06/14 11:18:39;;;;;;;5.63;3.10;;;24.60;63.60;;;;;;4933422;29;20073;-76
2023/06/14 11:21:05;;;;;;;6.53;2.90;;;24.60;61.80;;;;;;4933268;29;20028;-75
2023/06/14 11:23:31;;;;;;;5.65;2.80;;;24.50;61.40;;;;;;4933747;28;20364;-71
2023/06/14 11:25:57;;;;;;;6.82;2.92;;;24.70;63.30;;;;;;4933268;28;20107;-75
2023/06/14 11:28:23;;;;;;;5.90;3.40;;;24.70;65.30;;;;;;4998855;28;20115;-74
2023/06/14 11:30:59;;;;;;;5.38;2.85;;;24.80;66.40;;;;;;4933327;28;20527;-74
2023/06/14 11:33:25;;;;;;;10.70;3.50;;;24.80;63.70;;;;;;4933141;29;20077;-74
2023/06/14 11:35:52;;;;;;;8.38;3.05;;;24.90;65.00;;;;;;4933147;28;20122;-75
2023/06/14 11:38:18;;;;;;;5.18;2.95;;;24.90;65.60;;;;;;4933043;29;20055;-75
2023/06/14 11:40:43;;;;;;;5.97;3.00;;;25.10;64.60;;;;;;4932962;29;20097;-74
2023/06/14 11:43:09;;;;;;;3.67;2.63;;;25.10;64.00;;;;;;4933166;28;20055;-74
2023/06/14 11:45:35;;;;;;;4.03;3.00;;;25.10;65.70;;;;;;4933032;29;20034;-74
2023/06/14 11:48:01;;;;;;;4.35;3.03;;;25.20;64.80;;;;;;4932924;28;20474;-75
2023/06/14 11:50:28;;;;;;;6.90;2.97;;;25.30;64.00;;;;;;4933178;29;20047;-74
2023/06/14 11:52:59;;;;;;;5.72;3.17;;;25.40;63.50;;;;;;4932775;29;20491;-75
2023/06/14 11:55:25;;;;;;;4.57;2.70;;;25.50;64.10;;;;;;4932408;29;20077;-74
2023/06/14 11:57:53;;;;;;;6.05;2.70;;;25.50;63.20;;;;;;4932359;29;20468;-75
2023/06/14 12:00:22;;;;;;;3.20;2.70;;;25.50;63.20;;;;;;4929030;29;20043;-72
2023/06/14 12:02:58;;;;;;;4.72;2.85;;;25.60;63.00;;;;;;4930206;28;20036;-74
2023/06/14 12:05:25;;;;;;;4.82;2.72;;;25.60;62.60;;;;;;4931309;28;20028;-74
2023/06/14 12:07:59;;;;;;;7.28;2.95;;;25.70;62.50;;;;;;4932728;29;20038;-74
2023/06/14 12:10:26;;;;;;;5.75;2.80;;;25.80;62.40;;;;;;4932985;29;20020;-73
2023/06/14 12:12:56;;;;;;;4.68;2.97;;;25.80;62.30;;;;;;4933334;28;20032;-74
2023/06/14 12:15:22;;;;;;;5.85;3.20;;;25.90;62.60;;;;;;4932726;28;20032;-75
2023/06/14 12:17:48;;;;;;;6.00;2.78;;;25.90;61.60;;;;;;4929323;28;20102;-74
2023/06/14 12:20:16;;;;;;;6.60;2.75;;;25.90;60.80;;;;;;4922479;28;20534;-74
2023/06/14 12:22:56;;;;;;;5.50;2.70;;;25.90;61.10;;;;;;4921432;28;20404;-76
2023/06/14 12:25:31;;;;;;;7.97;2.85;;;25.90;61.60;;;;;;4923292;28;20231;-74
2023/06/14 12:27:57;;;;;;;3.65;2.80;;;25.90;61.40;;;;;;4922246;28;20040;-75
2023/06/14 12:30:23;;;;;;;8.38;2.75;;;26.00;61.60;;;;;;4921704;28;20062;-76
2023/06/14 12:32:48;;;;;;;4.47;2.83;;;26.00;60.80;;;;;;4927960;28;20056;-73
2023/06/14 12:35:15;;;;;;;6.63;2.85;;;26.00;60.50;;;;;;4919530;28;20056;-74
2023/06/14 12:37:41;;;;;;;6.10;2.85;;;26.00;60.70;;;;;;4914530;28;20068;-74
2023/06/14 12:40:07;;;;;;;4.18;2.80;;;26.10;61.60;;;;;;4977700;28;20064;-76
2023/06/14 12:42:33;;;;;;;5.53;2.90;;;26.10;61.80;;;;;;4913649;28;20083;-74
2023/06/14 12:44:59;;;;;;;3.20;2.90;;;26.20;60.80;;;;;;4913610;28;20029;-75
2023/06/14 12:47:25;;;;;;;8.35;2.70;;;26.20;60.60;;;;;;4913402;29;20036;-75